Milouin — FT9009 — position and weather

sailwx.info

Track history (hours):
 
Tides and Currents Weather Stations Pressure Air Temp Water Temp Dewpoint Dewpoint Depression Visibility Wind Speed Wind Dir Waves Ship Positions

Milouin

Last reported at 2016-Sep-28 08:33 UTC. Time now 2016-Sep-28 10:22 UTC.
Position N 47°18' W 002°07'.

Length 36 m; draft 2.5 m.

Type: Ship. MMSI: 227003190.

Date/timePositionNaut miles runAvg speedWind from/ knotsBaromVisibWave heightAir tempDewpointWater temp
2016-Sep-28 08:33N 47°18' W 002°07'4 0.9
2016-Sep-28 03:32N 47°17' W 002°01'0 0.0
2016-Sep-28 02:23N 47°17' W 002°01'0 0.0
2016-Sep-28 01:29N 47°17' W 002°01'0 0.0
2016-Sep-27 23:32N 47°17' W 002°01'0 0.0
2016-Sep-27 19:32N 47°17' W 002°01'0 0.1
2016-Sep-27 14:29N 47°18' W 002°01'0 0.0
2016-Sep-27 00:32N 47°17' W 002°01'0 0.0
2016-Sep-26 20:32N 47°17' W 002°01'0 0.1
2016-Sep-26 15:33N 47°18' W 002°01'0 0.1
2016-Sep-26 13:30N 47°18' W 002°01'0 0.2
2016-Sep-26 11:29N 47°17' W 002°01'0 0.0
2016-Sep-26 08:33N 47°17' W 002°01'0 0.0
2016-Sep-26 02:33N 47°17' W 002°01'0 0.0
2016-Sep-26 01:33N 47°17' W 002°01'0 0.0
2016-Sep-26 00:33N 47°17' W 002°01'0 0.0
2016-Sep-25 21:33N 47°17' W 002°01'0 0.0
2016-Sep-25 16:32N 47°17' W 002°01'3 3.5
2016-Sep-25 15:33N 47°18' W 002°06'0 0.0
2016-Sep-25 14:33N 47°18' W 002°06'2 0.8
2016-Sep-25 12:34N 47°18' W 002°03'2 1.7
2016-Sep-25 11:33N 47°17' W 002°01'0 0.0
2016-Sep-25 10:30N 47°17' W 002°01'0 0.0
2016-Sep-25 09:31N 47°17' W 002°01'0 0.0
2016-Sep-25 07:32N 47°17' W 002°01'0 0.0
2016-Sep-25 04:31N 47°17' W 002°01'0 0.0
2016-Sep-25 00:33N 47°17' W 002°01'0 0.0
2016-Sep-24 22:33N 47°17' W 002°01'0 0.0
2016-Sep-24 21:33N 47°17' W 002°01'0 0.0
2016-Sep-24 19:33N 47°17' W 002°01'0 0.0
2016-Sep-24 18:33N 47°17' W 002°01'0 0.0
2016-Sep-24 17:33N 47°17' W 002°01'0 0.0
2016-Sep-24 16:33N 47°17' W 002°01'3 1.6
2016-Sep-24 14:33N 47°18' W 002°06'1 0.7
2016-Sep-24 12:33N 47°18' W 002°04'2 0.9
2016-Sep-24 10:33N 47°17' W 002°01'0 0.0
2016-Sep-24 09:32N 47°17' W 002°01'0 0.0
2016-Sep-24 03:33N 47°17' W 002°01'0 0.0
2016-Sep-24 02:33N 47°17' W 002°01'0 0.0
2016-Sep-24 01:33N 47°17' W 002°01'0 0.0
2016-Sep-24 00:33N 47°17' W 002°01'0 0.0
2016-Sep-23 19:33N 47°17' W 002°01'0 0.0
2016-Sep-23 17:32N 47°17' W 002°01'0 0.0
2016-Sep-23 16:32N 47°17' W 002°01'7 6.6
2016-Sep-23 15:25N 47°15' W 001°51'0 0.2
2016-Sep-23 13:17N 47°15' W 001°51'1 0.2
2016-Sep-23 09:30N 47°14' W 001°50'8 2.7
2016-Sep-23 06:30N 47°17' W 002°01'0 0.1
2016-Sep-23 04:31N 47°17' W 002°01'0 0.0
2016-Sep-23 03:33N 47°17' W 002°01'0 0.0
2016-Sep-23 01:10N 47°17' W 002°01'0 0.0
2016-Sep-23 00:32N 47°17' W 002°01'0 0.0
2016-Sep-22 23:31N 47°17' W 002°01'0 0.0
2016-Sep-22 20:33N 47°17' W 002°01'0 0.0
2016-Sep-22 04:33N 47°17' W 002°01'0 0.0
2016-Sep-22 03:33N 47°17' W 002°01'0 0.0
2016-Sep-22 00:33N 47°17' W 002°01'0 0.0
2016-Sep-21 23:33N 47°17' W 002°01'0 0.0
2016-Sep-21 22:33N 47°17' W 002°01'0 0.0
2016-Sep-21 19:33N 47°17' W 002°01'6 0.6
2016-Sep-21 09:29N 47°16' W 001°52'5 4.7
2016-Sep-21 08:28N 47°13' W 001°47'1 0.2
2016-Sep-21 03:26N 47°12' W 001°46'0 0.0
2016-Sep-20 17:31N 47°12' W 001°46'8 2.8
2016-Sep-20 14:33N 47°17' W 001°56'4 3.6
2016-Sep-20 13:33N 47°17' W 002°01'3 1.1
2016-Sep-20 10:33N 47°18' W 002°06'0 0.1
2016-Sep-20 08:33N 47°18' W 002°06'0 0.2
2016-Sep-20 07:33N 47°18' W 002°06'0 0.0
2016-Sep-20 06:33N 47°18' W 002°06'3 0.8
2016-Sep-20 02:33N 47°17' W 002°01'0 0.0
2016-Sep-19 23:33N 47°17' W 002°01'0 0.0
2016-Sep-19 19:34N 47°17' W 002°01'0 0.0
2016-Sep-19 18:33N 47°17' W 002°01'0 0.0
2016-Sep-19 16:30N 47°17' W 002°01'0 0.0
2016-Sep-19 14:33N 47°17' W 002°01'0 0.0
2016-Sep-19 13:30N 47°17' W 002°01'0 0.5
2016-Sep-19 12:34N 47°18' W 002°02'3 2.9
2016-Sep-19 11:32N 47°18' W 002°06'0 0.0
2016-Sep-19 09:32N 47°18' W 002°06'11 5.7
2016-Sep-19 07:33N 47°14' W 001°50'4 3.5
2016-Sep-19 06:33N 47°12' W 001°46'0 0.0
2016-Sep-19 03:34N 47°12' W 001°46'0 0.0
2016-Sep-19 02:33N 47°12' W 001°46'0 0.0
2016-Sep-19 00:33N 47°12' W 001°46'0 0.0
2016-Sep-18 19:33N 47°12' W 001°46'0 0.0
2016-Sep-18 15:31N 47°12' W 001°46'0 0.0
2016-Sep-18 14:31N 47°12' W 001°46'7 1.8
2016-Sep-18 10:33N 47°17' W 001°54'0 0.3
2016-Sep-18 09:34N 47°17' W 001°54'  
Track history (hours):
 
Tides and Currents Weather Stations Pressure Air Temp Water Temp Dewpoint Dewpoint Depression Visibility Wind Speed Wind Dir Waves Ship Positions

Milouin

Last reported at 2016-Sep-28 08:33 UTC. Time now 2016-Sep-28 10:22 UTC.
Position N 47°18' W 002°07'.

Length 36 m; draft 2.5 m.

Type: Ship. MMSI: 227003190.

Date/timePositionNaut miles runAvg speedWind from/ knotsBaromVisibWave heightAir tempDewpointWater temp
2016-Sep-28 08:33N 47°18' W 002°07'4 0.9
2016-Sep-28 03:32N 47°17' W 002°01'0 0.0
2016-Sep-28 02:23N 47°17' W 002°01'0 0.0
2016-Sep-28 01:29N 47°17' W 002°01'0 0.0
2016-Sep-27 23:32N 47°17' W 002°01'0 0.0
2016-Sep-27 19:32N 47°17' W 002°01'0 0.1
2016-Sep-27 14:29N 47°18' W 002°01'0 0.0
2016-Sep-27 00:32N 47°17' W 002°01'0 0.0
2016-Sep-26 20:32N 47°17' W 002°01'0 0.1
2016-Sep-26 15:33N 47°18' W 002°01'0 0.1
2016-Sep-26 13:30N 47°18' W 002°01'0 0.2
2016-Sep-26 11:29N 47°17' W 002°01'0 0.0
2016-Sep-26 08:33N 47°17' W 002°01'0 0.0
2016-Sep-26 02:33N 47°17' W 002°01'0 0.0
2016-Sep-26 01:33N 47°17' W 002°01'0 0.0
2016-Sep-26 00:33N 47°17' W 002°01'0 0.0
2016-Sep-25 21:33N 47°17' W 002°01'0 0.0
2016-Sep-25 16:32N 47°17' W 002°01'3 3.5
2016-Sep-25 15:33N 47°18' W 002°06'0 0.0
2016-Sep-25 14:33N 47°18' W 002°06'2 0.8
2016-Sep-25 12:34N 47°18' W 002°03'2 1.7
2016-Sep-25 11:33N 47°17' W 002°01'0 0.0
2016-Sep-25 10:30N 47°17' W 002°01'0 0.0
2016-Sep-25 09:31N 47°17' W 002°01'0 0.0
2016-Sep-25 07:32N 47°17' W 002°01'0 0.0
2016-Sep-25 04:31N 47°17' W 002°01'0 0.0
2016-Sep-25 00:33N 47°17' W 002°01'0 0.0
2016-Sep-24 22:33N 47°17' W 002°01'0 0.0
2016-Sep-24 21:33N 47°17' W 002°01'0 0.0
2016-Sep-24 19:33N 47°17' W 002°01'0 0.0
2016-Sep-24 18:33N 47°17' W 002°01'0 0.0
2016-Sep-24 17:33N 47°17' W 002°01'0 0.0
2016-Sep-24 16:33N 47°17' W 002°01'3 1.6
2016-Sep-24 14:33N 47°18' W 002°06'1 0.7
2016-Sep-24 12:33N 47°18' W 002°04'2 0.9
2016-Sep-24 10:33N 47°17' W 002°01'0 0.0
2016-Sep-24 09:32N 47°17' W 002°01'0 0.0
2016-Sep-24 03:33N 47°17' W 002°01'0 0.0
2016-Sep-24 02:33N 47°17' W 002°01'0 0.0
2016-Sep-24 01:33N 47°17' W 002°01'0 0.0
2016-Sep-24 00:33N 47°17' W 002°01'0 0.0
2016-Sep-23 19:33N 47°17' W 002°01'0 0.0
2016-Sep-23 17:32N 47°17' W 002°01'0 0.0
2016-Sep-23 16:32N 47°17' W 002°01'7 6.6
2016-Sep-23 15:25N 47°15' W 001°51'0 0.2
2016-Sep-23 13:17N 47°15' W 001°51'1 0.2
2016-Sep-23 09:30N 47°14' W 001°50'8 2.7
2016-Sep-23 06:30N 47°17' W 002°01'0 0.1
2016-Sep-23 04:31N 47°17' W 002°01'0 0.0
2016-Sep-23 03:33N 47°17' W 002°01'0 0.0
2016-Sep-23 01:10N 47°17' W 002°01'0 0.0
2016-Sep-23 00:32N 47°17' W 002°01'0 0.0
2016-Sep-22 23:31N 47°17' W 002°01'0 0.0
2016-Sep-22 20:33N 47°17' W 002°01'0 0.0
2016-Sep-22 04:33N 47°17' W 002°01'0 0.0
2016-Sep-22 03:33N 47°17' W 002°01'0 0.0
2016-Sep-22 00:33N 47°17' W 002°01'0 0.0
2016-Sep-21 23:33N 47°17' W 002°01'0 0.0
2016-Sep-21 22:33N 47°17' W 002°01'0 0.0
2016-Sep-21 19:33N 47°17' W 002°01'6 0.6
2016-Sep-21 09:29N 47°16' W 001°52'5 4.7
2016-Sep-21 08:28N 47°13' W 001°47'1 0.2
2016-Sep-21 03:26N 47°12' W 001°46'0 0.0
2016-Sep-20 17:31N 47°12' W 001°46'8 2.8
2016-Sep-20 14:33N 47°17' W 001°56'4 3.6
2016-Sep-20 13:33N 47°17' W 002°01'3 1.1
2016-Sep-20 10:33N 47°18' W 002°06'0 0.1
2016-Sep-20 08:33N 47°18' W 002°06'0 0.2
2016-Sep-20 07:33N 47°18' W 002°06'0 0.0
2016-Sep-20 06:33N 47°18' W 002°06'3 0.8
2016-Sep-20 02:33N 47°17' W 002°01'0 0.0
2016-Sep-19 23:33N 47°17' W 002°01'0 0.0
2016-Sep-19 19:34N 47°17' W 002°01'0 0.0
2016-Sep-19 18:33N 47°17' W 002°01'0 0.0
2016-Sep-19 16:30N 47°17' W 002°01'0 0.0
2016-Sep-19 14:33N 47°17' W 002°01'0 0.0
2016-Sep-19 13:30N 47°17' W 002°01'0 0.5
2016-Sep-19 12:34N 47°18' W 002°02'3 2.9
2016-Sep-19 11:32N 47°18' W 002°06'0 0.0
2016-Sep-19 09:32N 47°18' W 002°06'11 5.7
2016-Sep-19 07:33N 47°14' W 001°50'4 3.5
2016-Sep-19 06:33N 47°12' W 001°46'0 0.0
2016-Sep-19 03:34N 47°12' W 001°46'0 0.0
2016-Sep-19 02:33N 47°12' W 001°46'0 0.0
2016-Sep-19 00:33N 47°12' W 001°46'0 0.0
2016-Sep-18 19:33N 47°12' W 001°46'0 0.0
2016-Sep-18 15:31N 47°12' W 001°46'0 0.0
2016-Sep-18 14:31N 47°12' W 001°46'7 1.8
2016-Sep-18 10:33N 47°17' W 001°54'0 0.3
2016-Sep-18 09:34N 47°17' W 001°54'  

Dump ship's entire track history